sensor_id;sensor_type;location;lat;lon;timestamp;P1;durP1;ratioP1;P2;durP2;ratioP2
71462;SDS011;59266;52.608;13.260;2023-04-24T00:02:08;10.35;;;4.97;;
71462;SDS011;59266;52.608;13.260;2023-04-24T00:04:37;9.30;;;4.50;;
71462;SDS011;59266;52.608;13.260;2023-04-24T00:07:07;10.95;;;4.32;;
71462;SDS011;59266;52.608;13.260;2023-04-24T00:09:33;11.02;;;4.40;;
71462;SDS011;59266;52.608;13.260;2023-04-24T00:12:00;9.95;;;4.72;;
71462;SDS011;59266;52.608;13.260;2023-04-24T00:14:30;11.32;;;4.72;;
71462;SDS011;59266;52.608;13.260;2023-04-24T00:16:58;8.68;;;4.50;;
71462;SDS011;59266;52.608;13.260;2023-04-24T00:19:25;12.20;;;5.18;;
71462;SDS011;59266;52.608;13.260;2023-04-24T00:21:51;9.98;;;4.63;;
71462;SDS011;59266;52.608;13.260;2023-04-24T00:24:18;11.55;;;4.55;;
71462;SDS011;59266;52.608;13.260;2023-04-24T00:26:48;12.82;;;4.50;;
71462;SDS011;59266;52.608;13.260;2023-04-24T00:29:15;11.15;;;4.75;;
71462;SDS011;59266;52.608;13.260;2023-04-24T00:31:41;15.95;;;5.22;;
71462;SDS011;59266;52.608;13.260;2023-04-24T00:34:09;12.15;;;4.53;;
71462;SDS011;59266;52.608;13.260;2023-04-24T00:36:38;9.48;;;4.57;;
71462;SDS011;59266;52.608;13.260;2023-04-24T00:39:05;13.98;;;4.38;;
71462;SDS011;59266;52.608;13.260;2023-04-24T00:41:35;12.13;;;4.63;;
71462;SDS011;59266;52.608;13.260;2023-04-24T00:44:01;11.35;;;4.20;;
71462;SDS011;59266;52.608;13.260;2023-04-24T00:46:28;9.60;;;4.40;;
71462;SDS011;59266;52.608;13.260;2023-04-24T00:48:57;11.00;;;4.97;;
71462;SDS011;59266;52.608;13.260;2023-04-24T00:51:27;9.52;;;4.50;;
71462;SDS011;59266;52.608;13.260;2023-04-24T00:53:53;11.05;;;4.88;;
71462;SDS011;59266;52.608;13.260;2023-04-24T00:56:20;11.60;;;4.88;;
71462;SDS011;59266;52.608;13.260;2023-04-24T00:58:48;9.80;;;5.18;;
71462;SDS011;59266;52.608;13.260;2023-04-24T01:01:16;12.90;;;4.93;;
71462;SDS011;59266;52.608;13.260;2023-04-24T01:03:43;10.10;;;4.95;;
71462;SDS011;59266;52.608;13.260;2023-04-24T01:06:10;10.55;;;5.20;;
71462;SDS011;59266;52.608;13.260;2023-04-24T01:08:39;11.52;;;5.18;;
71462;SDS011;59266;52.608;13.260;2023-04-24T01:11:05;10.82;;;5.65;;
71462;SDS011;59266;52.608;13.260;2023-04-24T01:13:32;9.70;;;5.07;;
71462;SDS011;59266;52.608;13.260;2023-04-24T01:15:59;11.70;;;4.88;;
71462;SDS011;59266;52.608;13.260;2023-04-24T01:18:27;10.85;;;5.00;;
71462;SDS011;59266;52.608;13.260;2023-04-24T01:20:56;11.75;;;5.22;;
71462;SDS011;59266;52.608;13.260;2023-04-24T01:23:24;12.00;;;5.40;;
71462;SDS011;59266;52.608;13.260;2023-04-24T01:25:53;10.77;;;5.13;;
71462;SDS011;59266;52.608;13.260;2023-04-24T01:28:20;9.98;;;5.40;;
71462;SDS011;59266;52.608;13.260;2023-04-24T01:30:48;16.27;;;6.05;;
71462;SDS011;59266;52.608;13.260;2023-04-24T01:33:16;21.02;;;7.85;;
71462;SDS011;59266;52.608;13.260;2023-04-24T01:35:45;15.88;;;7.32;;
71462;SDS011;59266;52.608;13.260;2023-04-24T01:38:11;18.33;;;8.05;;
71462;SDS011;59266;52.608;13.260;2023-04-24T01:40:40;16.90;;;7.82;;
71462;SDS011;59266;52.608;13.260;2023-04-24T01:43:08;23.38;;;8.25;;
71462;SDS011;59266;52.608;13.260;2023-04-24T01:45:35;21.05;;;7.68;;
71462;SDS011;59266;52.608;13.260;2023-04-24T01:48:02;18.45;;;7.93;;
71462;SDS011;59266;52.608;13.260;2023-04-24T01:50:29;23.98;;;8.25;;
71462;SDS011;59266;52.608;13.260;2023-04-24T01:52:58;19.30;;;7.90;;
71462;SDS011;59266;52.608;13.260;2023-04-24T01:55:25;16.73;;;7.70;;
71462;SDS011;59266;52.608;13.260;2023-04-24T02:00:25;18.73;;;7.70;;
71462;SDS011;59266;52.608;13.260;2023-04-24T02:02:53;16.13;;;8.05;;
71462;SDS011;59266;52.608;13.260;2023-04-24T02:05:20;20.42;;;8.98;;
71462;SDS011;59266;52.608;13.260;2023-04-24T02:07:47;19.30;;;7.97;;
71462;SDS011;59266;52.608;13.260;2023-04-24T02:10:13;17.42;;;8.15;;
71462;SDS011;59266;52.608;13.260;2023-04-24T02:12:40;16.83;;;8.30;;
71462;SDS011;59266;52.608;13.260;2023-04-24T02:15:07;16.67;;;8.32;;
71462;SDS011;59266;52.608;13.260;2023-04-24T02:17:34;18.90;;;8.05;;
71462;SDS011;59266;52.608;13.260;2023-04-24T02:20:01;14.82;;;7.10;;
71462;SDS011;59266;52.608;13.260;2023-04-24T02:22:28;16.52;;;7.85;;
71462;SDS011;59266;52.608;13.260;2023-04-24T02:24:56;17.00;;;7.90;;
71462;SDS011;59266;52.608;13.260;2023-04-24T02:27:24;17.70;;;8.07;;
71462;SDS011;59266;52.608;13.260;2023-04-24T02:29:50;15.60;;;7.97;;
71462;SDS011;59266;52.608;13.260;2023-04-24T02:32:17;16.30;;;7.63;;
71462;SDS011;59266;52.608;13.260;2023-04-24T02:34:46;24.38;;;8.38;;
71462;SDS011;59266;52.608;13.260;2023-04-24T02:37:13;18.52;;;8.02;;
71462;SDS011;59266;52.608;13.260;2023-04-24T02:39:42;24.00;;;8.70;;
71462;SDS011;59266;52.608;13.260;2023-04-24T02:42:09;21.02;;;8.10;;
71462;SDS011;59266;52.608;13.260;2023-04-24T02:44:36;21.42;;;8.20;;
71462;SDS011;59266;52.608;13.260;2023-04-24T02:47:03;18.88;;;8.05;;
71462;SDS011;59266;52.608;13.260;2023-04-24T02:49:34;18.35;;;8.18;;
71462;SDS011;59266;52.608;13.260;2023-04-24T02:52:01;22.25;;;8.13;;
71462;SDS011;59266;52.608;13.260;2023-04-24T02:54:31;18.55;;;7.88;;
71462;SDS011;59266;52.608;13.260;2023-04-24T02:56:58;19.23;;;8.98;;
71462;SDS011;59266;52.608;13.260;2023-04-24T02:59:24;22.35;;;9.05;;
71462;SDS011;59266;52.608;13.260;2023-04-24T03:01:53;19.92;;;8.88;;
71462;SDS011;59266;52.608;13.260;2023-04-24T03:04:22;16.20;;;7.72;;
71462;SDS011;59266;52.608;13.260;2023-04-24T03:06:49;17.98;;;8.40;;
71462;SDS011;59266;52.608;13.260;2023-04-24T03:09:19;21.27;;;8.27;;
71462;SDS011;59266;52.608;13.260;2023-04-24T03:11:45;18.02;;;7.97;;
71462;SDS011;59266;52.608;13.260;2023-04-24T03:14:17;15.77;;;7.47;;
71462;SDS011;59266;52.608;13.260;2023-04-24T03:16:44;19.65;;;8.18;;
71462;SDS011;59266;52.608;13.260;2023-04-24T03:19:11;16.02;;;8.05;;
71462;SDS011;59266;52.608;13.260;2023-04-24T03:21:38;17.90;;;9.00;;
71462;SDS011;59266;52.608;13.260;2023-04-24T03:24:07;16.40;;;8.23;;
71462;SDS011;59266;52.608;13.260;2023-04-24T03:26:35;14.85;;;7.88;;
71462;SDS011;59266;52.608;13.260;2023-04-24T03:29:02;17.13;;;8.05;;
71462;SDS011;59266;52.608;13.260;2023-04-24T03:31:30;15.00;;;8.27;;
71462;SDS011;59266;52.608;13.260;2023-04-24T03:33:58;15.77;;;8.23;;
71462;SDS011;59266;52.608;13.260;2023-04-24T03:36:25;16.67;;;8.50;;
71462;SDS011;59266;52.608;13.260;2023-04-24T03:38:52;16.83;;;7.88;;
71462;SDS011;59266;52.608;13.260;2023-04-24T03:41:19;15.48;;;8.25;;
71462;SDS011;59266;52.608;13.260;2023-04-24T03:43:46;16.00;;;7.93;;
71462;SDS011;59266;52.608;13.260;2023-04-24T03:46:14;15.63;;;7.80;;
71462;SDS011;59266;52.608;13.260;2023-04-24T03:48:41;15.13;;;7.38;;
71462;SDS011;59266;52.608;13.260;2023-04-24T03:51:10;15.45;;;7.63;;
71462;SDS011;59266;52.608;13.260;2023-04-24T03:53:38;13.25;;;7.22;;
71462;SDS011;59266;52.608;13.260;2023-04-24T03:56:06;14.25;;;7.47;;
71462;SDS011;59266;52.608;13.260;2023-04-24T03:58:35;16.50;;;7.85;;
71462;SDS011;59266;52.608;13.260;2023-04-24T04:01:04;15.25;;;7.85;;
71462;SDS011;59266;52.608;13.260;2023-04-24T04:03:31;13.65;;;7.15;;
71462;SDS011;59266;52.608;13.260;2023-04-24T04:05:59;18.98;;;8.00;;
71462;SDS011;59266;52.608;13.260;2023-04-24T04:08:26;17.50;;;7.97;;
71462;SDS011;59266;52.608;13.260;2023-04-24T04:10:53;18.08;;;8.07;;
71462;SDS011;59266;52.608;13.260;2023-04-24T04:13:19;17.90;;;8.10;;
71462;SDS011;59266;52.608;13.260;2023-04-24T04:15:46;17.70;;;8.60;;
71462;SDS011;59266;52.608;13.260;2023-04-24T04:18:13;15.10;;;7.38;;
71462;SDS011;59266;52.608;13.260;2023-04-24T04:20:39;18.67;;;8.23;;
71462;SDS011;59266;52.608;13.260;2023-04-24T04:23:06;14.80;;;7.88;;
71462;SDS011;59266;52.608;13.260;2023-04-24T04:25:33;15.93;;;8.20;;
71462;SDS011;59266;52.608;13.260;2023-04-24T04:27:59;14.88;;;7.55;;
71462;SDS011;59266;52.608;13.260;2023-04-24T04:30:26;18.83;;;8.30;;
71462;SDS011;59266;52.608;13.260;2023-04-24T04:32:53;18.48;;;8.52;;
71462;SDS011;59266;52.608;13.260;2023-04-24T04:35:20;18.83;;;7.90;;
71462;SDS011;59266;52.608;13.260;2023-04-24T04:37:48;15.00;;;7.53;;
71462;SDS011;59266;52.608;13.260;2023-04-24T04:40:15;13.73;;;7.07;;
71462;SDS011;59266;52.608;13.260;2023-04-24T04:42:42;13.13;;;6.72;;
71462;SDS011;59266;52.608;13.260;2023-04-24T04:45:08;11.95;;;6.45;;
71462;SDS011;59266;52.608;13.260;2023-04-24T04:47:35;14.73;;;6.78;;
71462;SDS011;59266;52.608;13.260;2023-04-24T04:50:02;13.32;;;6.50;;
71462;SDS011;59266;52.608;13.260;2023-04-24T04:52:30;13.45;;;7.03;;
71462;SDS011;59266;52.608;13.260;2023-04-24T04:54:59;11.18;;;6.13;;
71462;SDS011;59266;52.608;13.260;2023-04-24T04:57:26;14.82;;;6.65;;
71462;SDS011;59266;52.608;13.260;2023-04-24T04:59:53;13.90;;;5.70;;
71462;SDS011;59266;52.608;13.260;2023-04-24T05:02:21;10.88;;;6.05;;
71462;SDS011;59266;52.608;13.260;2023-04-24T05:04:48;11.73;;;5.95;;
71462;SDS011;59266;52.608;13.260;2023-04-24T05:07:15;11.65;;;6.15;;
71462;SDS011;59266;52.608;13.260;2023-04-24T05:09:42;10.23;;;5.15;;
71462;SDS011;59266;52.608;13.260;2023-04-24T05:12:09;10.82;;;5.50;;
71462;SDS011;59266;52.608;13.260;2023-04-24T05:14:35;15.63;;;5.82;;
71462;SDS011;59266;52.608;13.260;2023-04-24T05:17:02;9.27;;;4.85;;
71462;SDS011;59266;52.608;13.260;2023-04-24T05:19:29;9.48;;;4.68;;
71462;SDS011;59266;52.608;13.260;2023-04-24T05:21:56;10.23;;;4.78;;
71462;SDS011;59266;52.608;13.260;2023-04-24T05:24:23;9.82;;;5.18;;
71462;SDS011;59266;52.608;13.260;2023-04-24T05:26:50;8.52;;;4.28;;
71462;SDS011;59266;52.608;13.260;2023-04-24T05:29:17;9.00;;;4.22;;
71462;SDS011;59266;52.608;13.260;2023-04-24T05:31:45;8.40;;;4.50;;
71462;SDS011;59266;52.608;13.260;2023-04-24T05:34:13;8.20;;;4.03;;
71462;SDS011;59266;52.608;13.260;2023-04-24T05:36:42;8.45;;;3.70;;
71462;SDS011;59266;52.608;13.260;2023-04-24T05:39:10;11.07;;;3.97;;
71462;SDS011;59266;52.608;13.260;2023-04-24T05:41:37;8.57;;;3.90;;
71462;SDS011;59266;52.608;13.260;2023-04-24T05:44:06;7.93;;;3.38;;
71462;SDS011;59266;52.608;13.260;2023-04-24T05:46:33;7.28;;;3.47;;
71462;SDS011;59266;52.608;13.260;2023-04-24T05:49:00;6.65;;;3.13;;
71462;SDS011;59266;52.608;13.260;2023-04-24T05:51:28;6.72;;;3.38;;
71462;SDS011;59266;52.608;13.260;2023-04-24T05:53:55;13.80;;;3.60;;
71462;SDS011;59266;52.608;13.260;2023-04-24T05:56:21;7.15;;;2.88;;
71462;SDS011;59266;52.608;13.260;2023-04-24T05:58:49;7.38;;;3.58;;
71462;SDS011;59266;52.608;13.260;2023-04-24T06:01:16;6.75;;;3.30;;
71462;SDS011;59266;52.608;13.260;2023-04-24T06:03:42;7.53;;;3.15;;
71462;SDS011;59266;52.608;13.260;2023-04-24T06:06:11;9.73;;;2.97;;
71462;SDS011;59266;52.608;13.260;2023-04-24T06:08:37;7.72;;;3.05;;
71462;SDS011;59266;52.608;13.260;2023-04-24T06:11:05;9.38;;;2.40;;
71462;SDS011;59266;52.608;13.260;2023-04-24T06:13:32;6.85;;;2.15;;
71462;SDS011;59266;52.608;13.260;2023-04-24T06:15:59;4.63;;;2.13;;
71462;SDS011;59266;52.608;13.260;2023-04-24T06:18:27;10.55;;;2.10;;
71462;SDS011;59266;52.608;13.260;2023-04-24T06:20:53;5.68;;;1.90;;
71462;SDS011;59266;52.608;13.260;2023-04-24T06:23:21;5.20;;;1.75;;
71462;SDS011;59266;52.608;13.260;2023-04-24T06:25:47;4.47;;;1.50;;
71462;SDS011;59266;52.608;13.260;2023-04-24T06:28:14;4.80;;;1.88;;
71462;SDS011;59266;52.608;13.260;2023-04-24T06:30:41;3.70;;;1.45;;
71462;SDS011;59266;52.608;13.260;2023-04-24T06:33:09;3.45;;;1.23;;
71462;SDS011;59266;52.608;13.260;2023-04-24T06:38:13;2.72;;;1.20;;
71462;SDS011;59266;52.608;13.260;2023-04-24T06:40:40;4.13;;;1.40;;
71462;SDS011;59266;52.608;13.260;2023-04-24T06:43:08;5.43;;;1.25;;
71462;SDS011;59266;52.608;13.260;2023-04-24T06:45:35;4.40;;;1.30;;
71462;SDS011;59266;52.608;13.260;2023-04-24T06:48:02;6.13;;;1.27;;
71462;SDS011;59266;52.608;13.260;2023-04-24T06:50:31;2.63;;;1.10;;
71462;SDS011;59266;52.608;13.260;2023-04-24T06:53:00;3.13;;;1.13;;
71462;SDS011;59266;52.608;13.260;2023-04-24T06:55:27;3.33;;;1.20;;
71462;SDS011;59266;52.608;13.260;2023-04-24T06:57:55;3.85;;;1.10;;
71462;SDS011;59266;52.608;13.260;2023-04-24T07:00:21;2.30;;;1.00;;
71462;SDS011;59266;52.608;13.260;2023-04-24T07:02:50;2.83;;;0.90;;
71462;SDS011;59266;52.608;13.260;2023-04-24T07:05:17;3.22;;;1.08;;
71462;SDS011;59266;52.608;13.260;2023-04-24T07:07:46;3.00;;;1.10;;
71462;SDS011;59266;52.608;13.260;2023-04-24T07:10:13;3.33;;;1.10;;
71462;SDS011;59266;52.608;13.260;2023-04-24T07:12:40;2.05;;;0.85;;
71462;SDS011;59266;52.608;13.260;2023-04-24T07:15:07;2.70;;;1.00;;
71462;SDS011;59266;52.608;13.260;2023-04-24T07:17:34;2.92;;;0.90;;
71462;SDS011;59266;52.608;13.260;2023-04-24T07:20:01;3.72;;;1.27;;
71462;SDS011;59266;52.608;13.260;2023-04-24T07:22:28;2.00;;;0.80;;
71462;SDS011;59266;52.608;13.260;2023-04-24T07:24:57;1.27;;;0.80;;
71462;SDS011;59266;52.608;13.260;2023-04-24T07:27:23;4.75;;;1.00;;
71462;SDS011;59266;52.608;13.260;2023-04-24T07:29:51;2.85;;;0.90;;
71462;SDS011;59266;52.608;13.260;2023-04-24T07:32:22;1.63;;;0.70;;
71462;SDS011;59266;52.608;13.260;2023-04-24T07:34:49;1.20;;;0.65;;
71462;SDS011;59266;52.608;13.260;2023-04-24T07:37:17;1.55;;;0.80;;
71462;SDS011;59266;52.608;13.260;2023-04-24T07:39:43;2.10;;;0.73;;
71462;SDS011;59266;52.608;13.260;2023-04-24T07:42:10;5.55;;;0.82;;
71462;SDS011;59266;52.608;13.260;2023-04-24T07:44:37;2.95;;;0.80;;
71462;SDS011;59266;52.608;13.260;2023-04-24T07:47:04;1.90;;;0.70;;
71462;SDS011;59266;52.608;13.260;2023-04-24T07:49:30;1.35;;;0.68;;
71462;SDS011;59266;52.608;13.260;2023-04-24T07:51:57;2.03;;;0.70;;
71462;SDS011;59266;52.608;13.260;2023-04-24T07:54:27;1.80;;;0.80;;
71462;SDS011;59266;52.608;13.260;2023-04-24T07:56:53;3.03;;;0.73;;
71462;SDS011;59266;52.608;13.260;2023-04-24T07:59:20;2.35;;;0.90;;
71462;SDS011;59266;52.608;13.260;2023-04-24T08:01:47;2.42;;;0.90;;
71462;SDS011;59266;52.608;13.260;2023-04-24T08:04:14;2.70;;;0.73;;
71462;SDS011;59266;52.608;13.260;2023-04-24T08:06:40;1.27;;;0.60;;
71462;SDS011;59266;52.608;13.260;2023-04-24T08:09:07;2.33;;;0.82;;
71462;SDS011;59266;52.608;13.260;2023-04-24T08:11:34;1.85;;;0.70;;
71462;SDS011;59266;52.608;13.260;2023-04-24T08:14:00;1.95;;;0.80;;
71462;SDS011;59266;52.608;13.260;2023-04-24T08:16:32;2.97;;;0.90;;
71462;SDS011;59266;52.608;13.260;2023-04-24T08:18:59;2.03;;;0.90;;
71462;SDS011;59266;52.608;13.260;2023-04-24T08:21:27;2.97;;;0.85;;
71462;SDS011;59266;52.608;13.260;2023-04-24T08:23:55;1.40;;;0.57;;
71462;SDS011;59266;52.608;13.260;2023-04-24T08:26:22;1.65;;;0.70;;
71462;SDS011;59266;52.608;13.260;2023-04-24T08:28:48;1.65;;;0.70;;
71462;SDS011;59266;52.608;13.260;2023-04-24T08:31:15;1.30;;;0.60;;
71462;SDS011;59266;52.608;13.260;2023-04-24T08:33:42;2.60;;;0.73;;
71462;SDS011;59266;52.608;13.260;2023-04-24T08:36:11;3.83;;;0.80;;
71462;SDS011;59266;52.608;13.260;2023-04-24T08:38:37;1.25;;;0.70;;
71462;SDS011;59266;52.608;13.260;2023-04-24T08:41:06;2.00;;;0.90;;
71462;SDS011;59266;52.608;13.260;2023-04-24T08:43:35;3.90;;;0.73;;
71462;SDS011;59266;52.608;13.260;2023-04-24T08:46:03;1.65;;;0.70;;
71462;SDS011;59266;52.608;13.260;2023-04-24T08:48:36;1.45;;;0.70;;
71462;SDS011;59266;52.608;13.260;2023-04-24T08:51:04;2.42;;;0.80;;
71462;SDS011;59266;52.608;13.260;2023-04-24T08:53:34;2.60;;;1.05;;
71462;SDS011;59266;52.608;13.260;2023-04-24T08:56:04;1.92;;;0.85;;
71462;SDS011;59266;52.608;13.260;2023-04-24T08:58:31;1.13;;;0.60;;
71462;SDS011;59266;52.608;13.260;2023-04-24T09:00:57;1.65;;;0.80;;
71462;SDS011;59266;52.608;13.260;2023-04-24T09:03:26;2.00;;;0.80;;
71462;SDS011;59266;52.608;13.260;2023-04-24T09:05:54;2.33;;;0.93;;
71462;SDS011;59266;52.608;13.260;2023-04-24T09:08:24;2.15;;;0.85;;
71462;SDS011;59266;52.608;13.260;2023-04-24T09:10:52;4.80;;;0.98;;
71462;SDS011;59266;52.608;13.260;2023-04-24T09:13:19;2.40;;;0.70;;
71462;SDS011;59266;52.608;13.260;2023-04-24T09:15:47;1.27;;;0.70;;
71462;SDS011;59266;52.608;13.260;2023-04-24T09:18:15;2.10;;;0.70;;
71462;SDS011;59266;52.608;13.260;2023-04-24T09:21:01;3.00;;;0.90;;
71462;SDS011;59266;52.608;13.260;2023-04-24T09:23:31;1.73;;;0.70;;
71462;SDS011;59266;52.608;13.260;2023-04-24T09:26:00;2.35;;;0.73;;
71462;SDS011;59266;52.608;13.260;2023-04-24T09:28:37;3.22;;;0.80;;
71462;SDS011;59266;52.608;13.260;2023-04-24T09:31:06;3.03;;;0.75;;
71462;SDS011;59266;52.608;13.260;2023-04-24T09:33:35;1.95;;;0.77;;
71462;SDS011;59266;52.608;13.260;2023-04-24T09:36:03;2.53;;;0.90;;
71462;SDS011;59266;52.608;13.260;2023-04-24T09:38:37;2.00;;;0.80;;
71462;SDS011;59266;52.608;13.260;2023-04-24T09:41:05;2.50;;;0.80;;
71462;SDS011;59266;52.608;13.260;2023-04-24T09:43:33;3.97;;;1.00;;
71462;SDS011;59266;52.608;13.260;2023-04-24T09:46:05;2.25;;;0.80;;
71462;SDS011;59266;52.608;13.260;2023-04-24T09:48:34;2.03;;;0.80;;
71462;SDS011;59266;52.608;13.260;2023-04-24T09:51:03;2.63;;;0.80;;
71462;SDS011;59266;52.608;13.260;2023-04-24T09:53:37;2.45;;;0.90;;
71462;SDS011;59266;52.608;13.260;2023-04-24T09:56:09;4.10;;;1.45;;
71462;SDS011;59266;52.608;13.260;2023-04-24T09:58:36;3.78;;;0.90;;
71462;SDS011;59266;52.608;13.260;2023-04-24T10:01:03;3.70;;;0.90;;
71462;SDS011;59266;52.608;13.260;2023-04-24T10:03:30;1.60;;;0.80;;
71462;SDS011;59266;52.608;13.260;2023-04-24T10:05:59;1.73;;;0.80;;
71462;SDS011;59266;52.608;13.260;2023-04-24T10:08:27;1.65;;;0.88;;
71462;SDS011;59266;52.608;13.260;2023-04-24T10:10:59;4.97;;;1.00;;
71462;SDS011;59266;52.608;13.260;2023-04-24T10:13:28;2.60;;;1.00;;
71462;SDS011;59266;52.608;13.260;2023-04-24T10:15:55;7.18;;;1.08;;
71462;SDS011;59266;52.608;13.260;2023-04-24T10:18:22;1.48;;;0.85;;
71462;SDS011;59266;52.608;13.260;2023-04-24T10:20:50;2.67;;;0.88;;
71462;SDS011;59266;52.608;13.260;2023-04-24T10:23:17;3.13;;;0.82;;
71462;SDS011;59266;52.608;13.260;2023-04-24T10:25:45;1.77;;;0.90;;
71462;SDS011;59266;52.608;13.260;2023-04-24T10:28:12;3.47;;;0.90;;
71462;SDS011;59266;52.608;13.260;2023-04-24T10:30:40;2.15;;;0.80;;
71462;SDS011;59266;52.608;13.260;2023-04-24T10:33:09;2.50;;;0.90;;
71462;SDS011;59266;52.608;13.260;2023-04-24T10:35:40;2.85;;;0.90;;
71462;SDS011;59266;52.608;13.260;2023-04-24T10:38:13;2.72;;;1.02;;
71462;SDS011;59266;52.608;13.260;2023-04-24T10:40:42;6.03;;;1.42;;
71462;SDS011;59266;52.608;13.260;2023-04-24T10:43:09;2.75;;;1.00;;
71462;SDS011;59266;52.608;13.260;2023-04-24T10:45:38;3.58;;;1.00;;
71462;SDS011;59266;52.608;13.260;2023-04-24T10:48:05;5.10;;;1.10;;
71462;SDS011;59266;52.608;13.260;2023-04-24T10:53:15;2.45;;;0.90;;
71462;SDS011;59266;52.608;13.260;2023-04-24T10:58:10;5.47;;;1.10;;
71462;SDS011;59266;52.608;13.260;2023-04-24T11:00:38;4.03;;;1.00;;
71462;SDS011;59266;52.608;13.260;2023-04-24T11:03:22;5.35;;;1.30;;
71462;SDS011;59266;52.608;13.260;2023-04-24T11:05:52;2.83;;;0.90;;
71462;SDS011;59266;52.608;13.260;2023-04-24T11:08:23;3.63;;;0.90;;
71462;SDS011;59266;52.608;13.260;2023-04-24T11:11:00;5.93;;;1.00;;
71462;SDS011;59266;52.608;13.260;2023-04-24T11:19:22;7.80;;;1.20;;
71462;SDS011;59266;52.608;13.260;2023-04-24T11:22:00;7.07;;;1.10;;
71462;SDS011;59266;52.608;13.260;2023-04-24T11:26:56;1.85;;;0.73;;
71462;SDS011;59266;52.608;13.260;2023-04-24T11:29:41;2.22;;;0.80;;
71462;SDS011;59266;52.608;13.260;2023-04-24T11:35:13;2.20;;;0.77;;
71462;SDS011;59266;52.608;13.260;2023-04-24T11:37:48;1.30;;;0.70;;
71462;SDS011;59266;52.608;13.260;2023-04-24T11:40:38;2.10;;;0.73;;
71462;SDS011;59266;52.608;13.260;2023-04-24T11:43:05;1.90;;;0.70;;
71462;SDS011;59266;52.608;13.260;2023-04-24T11:45:33;2.42;;;0.80;;
71462;SDS011;59266;52.608;13.260;2023-04-24T11:48:01;3.75;;;0.90;;
71462;SDS011;59266;52.608;13.260;2023-04-24T11:50:29;4.32;;;0.80;;
71462;SDS011;59266;52.608;13.260;2023-04-24T11:52:57;4.20;;;1.00;;
71462;SDS011;59266;52.608;13.260;2023-04-24T11:55:25;3.20;;;0.85;;
71462;SDS011;59266;52.608;13.260;2023-04-24T11:57:54;1.65;;;0.70;;
71462;SDS011;59266;52.608;13.260;2023-04-24T12:00:29;2.72;;;0.88;;
71462;SDS011;59266;52.608;13.260;2023-04-24T12:03:07;3.17;;;0.90;;
71462;SDS011;59266;52.608;13.260;2023-04-24T12:05:35;5.00;;;0.90;;
71462;SDS011;59266;52.608;13.260;2023-04-24T12:08:02;2.15;;;0.90;;
71462;SDS011;59266;52.608;13.260;2023-04-24T12:10:31;3.60;;;1.00;;
71462;SDS011;59266;52.608;13.260;2023-04-24T12:12:59;2.03;;;0.90;;
71462;SDS011;59266;52.608;13.260;2023-04-24T12:15:26;4.88;;;1.15;;
71462;SDS011;59266;52.608;13.260;2023-04-24T12:17:54;3.63;;;1.20;;
71462;SDS011;59266;52.608;13.260;2023-04-24T12:20:26;2.33;;;0.80;;
71462;SDS011;59266;52.608;13.260;2023-04-24T12:22:55;2.55;;;0.95;;
71462;SDS011;59266;52.608;13.260;2023-04-24T12:25:23;2.90;;;0.90;;
71462;SDS011;59266;52.608;13.260;2023-04-24T12:27:53;2.47;;;0.80;;
71462;SDS011;59266;52.608;13.260;2023-04-24T12:30:21;6.00;;;1.10;;
71462;SDS011;59266;52.608;13.260;2023-04-24T12:32:54;2.20;;;0.90;;
71462;SDS011;59266;52.608;13.260;2023-04-24T12:35:25;3.70;;;0.82;;
71462;SDS011;59266;52.608;13.260;2023-04-24T12:37:59;1.00;;;0.60;;
71462;SDS011;59266;52.608;13.260;2023-04-24T12:40:35;1.55;;;0.70;;
71462;SDS011;59266;52.608;13.260;2023-04-24T12:43:02;3.45;;;0.70;;
71462;SDS011;59266;52.608;13.260;2023-04-24T12:45:28;2.80;;;0.80;;
71462;SDS011;59266;52.608;13.260;2023-04-24T12:47:55;5.60;;;0.88;;
71462;SDS011;59266;52.608;13.260;2023-04-24T12:50:22;2.83;;;1.00;;
71462;SDS011;59266;52.608;13.260;2023-04-24T12:52:48;4.60;;;1.02;;
71462;SDS011;59266;52.608;13.260;2023-04-24T12:55:15;4.57;;;1.20;;
71462;SDS011;59266;52.608;13.260;2023-04-24T12:57:42;5.35;;;1.00;;
71462;SDS011;59266;52.608;13.260;2023-04-24T13:00:11;2.00;;;0.80;;
71462;SDS011;59266;52.608;13.260;2023-04-24T13:02:42;2.63;;;0.90;;
71462;SDS011;59266;52.608;13.260;2023-04-24T13:05:12;4.60;;;1.10;;
71462;SDS011;59266;52.608;13.260;2023-04-24T13:07:40;3.42;;;0.90;;
71462;SDS011;59266;52.608;13.260;2023-04-24T13:10:07;2.78;;;1.00;;
71462;SDS011;59266;52.608;13.260;2023-04-24T13:12:34;2.83;;;0.93;;
71462;SDS011;59266;52.608;13.260;2023-04-24T13:15:01;3.58;;;1.10;;
71462;SDS011;59266;52.608;13.260;2023-04-24T13:17:29;2.70;;;1.00;;
71462;SDS011;59266;52.608;13.260;2023-04-24T13:19:57;4.32;;;1.00;;
71462;SDS011;59266;52.608;13.260;2023-04-24T13:22:24;4.35;;;1.20;;
71462;SDS011;59266;52.608;13.260;2023-04-24T13:24:51;3.33;;;1.05;;
71462;SDS011;59266;52.608;13.260;2023-04-24T13:27:18;6.30;;;1.20;;
71462;SDS011;59266;52.608;13.260;2023-04-24T13:29:44;3.65;;;1.20;;
71462;SDS011;59266;52.608;13.260;2023-04-24T13:32:12;2.97;;;1.10;;
71462;SDS011;59266;52.608;13.260;2023-04-24T13:34:38;4.53;;;1.10;;
71462;SDS011;59266;52.608;13.260;2023-04-24T13:37:05;2.65;;;1.00;;
71462;SDS011;59266;52.608;13.260;2023-04-24T13:39:32;1.80;;;0.90;;
71462;SDS011;59266;52.608;13.260;2023-04-24T13:41:59;3.25;;;1.15;;
71462;SDS011;59266;52.608;13.260;2023-04-24T13:44:30;2.08;;;1.00;;
71462;SDS011;59266;52.608;13.260;2023-04-24T13:46:58;2.75;;;1.23;;
71462;SDS011;59266;52.608;13.260;2023-04-24T13:49:25;3.90;;;1.25;;
71462;SDS011;59266;52.608;13.260;2023-04-24T13:51:53;3.55;;;1.23;;
71462;SDS011;59266;52.608;13.260;2023-04-24T13:54:21;2.42;;;1.10;;
71462;SDS011;59266;52.608;13.260;2023-04-24T13:56:52;4.53;;;1.33;;
71462;SDS011;59266;52.608;13.260;2023-04-24T13:59:21;3.83;;;1.00;;
71462;SDS011;59266;52.608;13.260;2023-04-24T14:01:48;3.03;;;1.05;;
71462;SDS011;59266;52.608;13.260;2023-04-24T14:04:15;2.10;;;1.00;;
71462;SDS011;59266;52.608;13.260;2023-04-24T14:06:43;3.03;;;1.10;;
71462;SDS011;59266;52.608;13.260;2023-04-24T14:09:10;3.22;;;1.10;;
71462;SDS011;59266;52.608;13.260;2023-04-24T14:11:36;3.47;;;1.08;;
71462;SDS011;59266;52.608;13.260;2023-04-24T14:14:03;4.10;;;1.00;;
71462;SDS011;59266;52.608;13.260;2023-04-24T14:16:30;3.28;;;1.00;;
71462;SDS011;59266;52.608;13.260;2023-04-24T14:18:57;1.30;;;0.65;;
71462;SDS011;59266;52.608;13.260;2023-04-24T14:21:24;1.67;;;0.70;;
71462;SDS011;59266;52.608;13.260;2023-04-24T14:23:50;3.78;;;1.00;;
71462;SDS011;59266;52.608;13.260;2023-04-24T14:26:19;2.10;;;1.02;;
71462;SDS011;59266;52.608;13.260;2023-04-24T14:28:45;3.83;;;1.20;;
71462;SDS011;59266;52.608;13.260;2023-04-24T14:31:12;2.50;;;1.05;;
71462;SDS011;59266;52.608;13.260;2023-04-24T14:33:39;2.60;;;1.00;;
71462;SDS011;59266;52.608;13.260;2023-04-24T14:36:05;4.38;;;1.10;;
71462;SDS011;59266;52.608;13.260;2023-04-24T14:38:32;3.00;;;1.05;;
71462;SDS011;59266;52.608;13.260;2023-04-24T14:40:59;2.58;;;1.23;;
71462;SDS011;59266;52.608;13.260;2023-04-24T14:43:28;3.28;;;1.13;;
71462;SDS011;59266;52.608;13.260;2023-04-24T14:45:56;2.53;;;1.10;;
71462;SDS011;59266;52.608;13.260;2023-04-24T14:48:22;2.85;;;1.10;;
71462;SDS011;59266;52.608;13.260;2023-04-24T14:50:49;4.55;;;1.30;;
71462;SDS011;59266;52.608;13.260;2023-04-24T14:53:16;4.38;;;1.15;;
71462;SDS011;59266;52.608;13.260;2023-04-24T14:55:43;3.35;;;1.10;;
71462;SDS011;59266;52.608;13.260;2023-04-24T14:58:10;3.53;;;1.23;;